createdAt,value
2017-09-08T07:17:22.388Z,47.83
2017-09-08T07:19:50.786Z,33.30
2017-09-08T07:22:20.736Z,35.53
2017-09-08T07:24:51.236Z,31.10
2017-09-08T07:27:19.600Z,28.93
2017-09-08T07:29:48.046Z,39.07
2017-09-08T07:32:16.785Z,42.50
2017-09-08T07:34:45.187Z,32.57
2017-09-08T07:37:13.632Z,29.37
2017-09-08T07:39:44.362Z,24.27
2017-09-08T07:42:13.588Z,35.57
2017-09-08T07:44:41.970Z,28.00
2017-09-08T07:47:10.897Z,40.43
2017-09-08T07:49:40.272Z,33.60
2017-09-08T07:52:08.862Z,38.07
2017-09-08T07:54:38.669Z,30.43
2017-09-08T07:57:07.113Z,32.37
2017-09-08T07:59:35.532Z,26.00
2017-09-08T08:02:05.002Z,29.40
2017-09-08T08:04:34.235Z,51.27
2017-09-08T08:07:03.869Z,37.83
2017-09-08T08:09:32.648Z,31.83
2017-09-08T08:12:00.999Z,28.07
2017-09-08T08:14:29.370Z,28.30
2017-09-08T08:16:58.978Z,27.30
2017-09-08T08:19:27.553Z,22.20
2017-09-08T08:21:56.368Z,24.90
2017-09-08T08:24:25.436Z,30.10
2017-09-08T08:26:53.834Z,34.03
2017-09-08T08:29:22.859Z,28.33
2017-09-08T08:31:53.315Z,38.10
2017-09-08T08:34:21.677Z,40.90
2017-09-08T08:36:50.810Z,24.57
2017-09-08T08:39:21.981Z,23.47
2017-09-08T08:41:50.330Z,31.83
2017-09-08T08:44:22.120Z,28.03
2017-09-08T08:46:50.576Z,37.57
2017-09-08T08:49:20.285Z,22.77
2017-09-08T08:51:49.693Z,28.27
2017-09-08T08:54:18.063Z,28.57
2017-09-08T08:56:47.427Z,38.33
2017-09-08T08:59:17.628Z,33.83
2017-09-08T09:01:47.361Z,29.40
2017-09-08T09:04:16.004Z,20.83
2017-09-08T09:06:45.171Z,31.50
2017-09-08T09:09:14.614Z,35.40
2017-09-08T09:11:43.078Z,37.10
2017-09-08T09:14:12.225Z,34.70
2017-09-08T09:16:40.600Z,30.90
2017-09-08T09:19:10.722Z,28.63
2017-09-08T09:21:39.785Z,21.07
2017-09-08T09:24:08.126Z,27.53
2017-09-08T09:26:36.492Z,31.37
2017-09-08T09:29:05.845Z,25.77
2017-09-08T09:31:34.251Z,36.60
2017-09-08T09:34:04.356Z,44.47
2017-09-08T09:36:33.081Z,30.47
2017-09-08T09:39:02.348Z,27.47
2017-09-08T09:41:32.028Z,25.70
2017-09-08T09:44:00.651Z,41.47
2017-09-08T09:46:29.767Z,30.03
2017-09-08T09:48:58.893Z,29.10
2017-09-08T09:51:28.795Z,28.33
2017-09-08T09:53:58.795Z,21.27
2017-09-08T09:56:28.299Z,29.77
2017-09-08T09:58:56.978Z,26.70
2017-09-08T10:01:25.352Z,32.73
2017-09-08T10:03:54.470Z,25.73
2017-09-08T10:06:23.254Z,26.73
2017-09-08T10:08:51.633Z,36.27
2017-09-08T10:11:21.951Z,33.93
2017-09-08T10:13:51.976Z,31.30
2017-09-08T10:16:20.330Z,34.37
2017-09-08T10:18:48.686Z,27.90
2017-09-08T10:21:17.622Z,28.97
2017-09-08T10:23:45.962Z,30.67
2017-09-08T10:26:14.317Z,27.60
2017-09-08T10:28:43.046Z,33.37
2017-09-08T10:31:11.957Z,37.03
2017-09-08T10:33:40.331Z,31.90
2017-09-08T10:36:11.241Z,32.53
2017-09-08T10:38:40.459Z,24.83
2017-09-08T10:41:09.819Z,24.10
2017-09-08T10:43:38.662Z,34.77
2017-09-08T10:46:07.779Z,42.17
2017-09-08T10:48:36.140Z,40.40
2017-09-08T10:51:05.756Z,23.50
2017-09-08T10:53:34.112Z,28.10
2017-09-08T10:56:02.454Z,21.37
2017-09-08T10:58:31.226Z,21.47
2017-09-08T11:00:59.571Z,18.27
2017-09-08T11:03:29.222Z,29.33
2017-09-08T11:05:58.084Z,29.67
2017-09-08T11:08:26.422Z,34.67
2017-09-08T11:10:55.639Z,29.50
2017-09-08T11:13:25.161Z,23.93
2017-09-08T11:15:54.361Z,25.20
2017-09-08T11:18:23.555Z,27.33
2017-09-08T11:20:53.000Z,27.60
2017-09-08T11:23:21.377Z,17.33
2017-09-08T11:25:50.327Z,26.93
2017-09-08T11:28:19.136Z,16.10
2017-09-08T11:30:47.502Z,22.67
2017-09-08T11:33:23.167Z,23.57
2017-09-08T11:35:57.060Z,18.57
2017-09-08T11:38:25.951Z,27.03
2017-09-08T11:40:54.337Z,26.60
2017-09-08T11:43:23.669Z,18.00
2017-09-08T11:45:52.334Z,15.30
2017-09-08T11:48:20.671Z,24.93
2017-09-08T11:50:49.749Z,25.77
2017-09-08T11:53:18.465Z,20.70
2017-09-08T11:55:47.048Z,18.60
2017-09-08T11:58:15.442Z,16.00
2017-09-08T12:00:45.707Z,23.43
2017-09-08T12:03:14.050Z,14.07
2017-09-08T12:05:42.417Z,17.23
2017-09-08T12:08:11.791Z,20.47
2017-09-08T12:10:40.165Z,17.10
2017-09-08T12:13:08.500Z,15.50
2017-09-08T12:15:37.269Z,10.23
2017-09-08T12:18:06.400Z,14.60
2017-09-08T12:20:34.746Z,12.60
2017-09-08T12:23:04.140Z,23.70
2017-09-08T12:25:32.484Z,15.97
2017-09-08T12:28:00.839Z,16.63
2017-09-08T12:30:29.607Z,22.20
2017-09-08T12:32:57.977Z,21.90
2017-09-08T12:35:26.359Z,15.67
2017-09-08T12:37:55.233Z,16.03
2017-09-08T12:40:24.472Z,19.53
2017-09-08T12:42:53.827Z,13.03
2017-09-08T12:45:23.919Z,16.23
2017-09-08T12:47:52.284Z,23.93
2017-09-08T12:50:22.482Z,16.10
2017-09-08T12:52:51.933Z,17.93
2017-09-08T12:55:20.296Z,14.23
2017-09-08T12:57:49.492Z,12.90
2017-09-08T13:00:18.963Z,14.17
2017-09-08T13:02:47.321Z,16.10
2017-09-08T13:05:16.666Z,13.87
2017-09-08T13:07:45.618Z,13.00
2017-09-08T13:10:14.038Z,16.87
2017-09-08T13:12:42.467Z,13.17
2017-09-08T13:15:12.620Z,18.03
2017-09-08T13:17:40.979Z,20.63
2017-09-08T13:20:09.350Z,25.20
2017-09-08T13:22:38.747Z,11.10
2017-09-08T13:25:07.867Z,11.43
2017-09-08T13:27:36.249Z,10.70
2017-09-08T13:30:06.111Z,12.00
2017-09-08T13:32:35.538Z,9.27
2017-09-08T13:35:03.891Z,10.03
2017-09-08T13:37:32.904Z,8.80
2017-09-08T13:40:01.454Z,6.67
2017-09-08T13:42:29.781Z,12.70
2017-09-08T13:45:00.030Z,4.57
2017-09-08T13:47:28.382Z,13.73
2017-09-08T13:49:58.141Z,10.70
2017-09-08T13:52:27.265Z,6.27
2017-09-08T13:54:56.195Z,5.77
2017-09-08T13:57:24.546Z,7.93
2017-09-08T13:59:53.185Z,6.93
2017-09-08T14:02:22.229Z,6.17
2017-09-08T14:04:50.592Z,8.60
2017-09-08T14:07:19.329Z,9.17
2017-09-08T14:09:47.675Z,16.13
2017-09-08T14:12:16.040Z,7.07
2017-09-08T14:14:44.786Z,13.20
2017-09-08T14:17:13.133Z,10.80
2017-09-08T14:19:41.487Z,7.43
2017-09-08T14:22:10.202Z,9.17
2017-09-08T14:24:39.394Z,9.60
2017-09-08T14:27:07.783Z,14.30
2017-09-08T14:29:39.517Z,9.63
2017-09-08T14:32:08.686Z,7.77
2017-09-08T14:34:37.063Z,9.63
2017-09-08T14:37:06.070Z,6.00
2017-09-08T14:39:34.449Z,7.47
2017-09-08T14:42:02.795Z,7.40
2017-09-08T14:44:31.568Z,14.20
2017-09-08T14:46:59.931Z,12.30
2017-09-08T14:49:28.364Z,18.60
2017-09-08T14:51:56.979Z,11.40
2017-09-08T14:54:25.337Z,11.03
2017-09-08T14:56:53.694Z,8.10
2017-09-08T14:59:23.031Z,6.90
2017-09-08T15:01:51.784Z,19.43
2017-09-08T15:04:20.160Z,6.33
2017-09-08T15:06:49.025Z,9.30
2017-09-08T15:09:17.367Z,9.27
2017-09-08T15:11:45.731Z,6.50
2017-09-08T15:14:15.982Z,11.33
2017-09-08T15:16:44.845Z,5.67
2017-09-08T15:19:14.135Z,11.83
2017-09-08T15:21:43.942Z,14.53
2017-09-08T15:24:12.297Z,13.10
2017-09-08T15:26:40.652Z,6.63
2017-09-08T15:29:10.047Z,7.53
2017-09-08T15:31:39.199Z,7.43
2017-09-08T15:34:09.111Z,9.40
2017-09-08T15:36:37.911Z,7.43
2017-09-08T15:39:07.113Z,12.60
2017-09-08T15:41:35.469Z,8.10
2017-09-08T15:44:04.252Z,9.50
2017-09-08T15:46:32.608Z,8.60
2017-09-08T15:49:00.990Z,8.00
2017-09-08T15:51:29.705Z,6.57
2017-09-08T15:53:58.056Z,4.83
2017-09-08T15:56:26.875Z,8.07
2017-09-08T15:58:56.460Z,7.20
2017-09-08T16:01:25.276Z,7.70
2017-09-08T16:03:53.622Z,7.70
2017-09-08T16:06:23.161Z,8.20
2017-09-08T16:08:52.401Z,6.17
2017-09-08T16:11:21.558Z,5.90
2017-09-08T16:13:50.292Z,7.07
2017-09-08T16:16:19.422Z,10.10
2017-09-08T16:18:48.129Z,5.00
2017-09-08T16:21:19.467Z,8.77
2017-09-08T16:23:47.831Z,5.47
2017-09-08T16:26:16.979Z,12.77
2017-09-08T16:28:46.212Z,5.20
2017-09-08T16:31:15.325Z,5.60
2017-09-08T16:33:43.689Z,4.77
2017-09-08T16:36:14.143Z,4.43
2017-09-08T16:38:42.542Z,5.70
2017-09-08T16:41:10.899Z,4.20
2017-09-08T16:43:39.583Z,4.80
2017-09-08T16:46:07.940Z,5.20
2017-09-08T16:48:36.378Z,5.73
2017-09-08T16:51:05.431Z,4.57
2017-09-08T16:53:34.631Z,5.83
2017-09-08T16:56:03.005Z,4.97
2017-09-08T16:58:31.734Z,4.37
2017-09-08T17:01:00.095Z,5.17
2017-09-08T17:03:28.435Z,6.03
2017-09-08T17:05:57.965Z,4.73
2017-09-08T17:08:26.366Z,4.63
2017-09-08T17:10:54.717Z,4.40
2017-09-08T17:13:23.814Z,5.13
2017-09-08T17:15:52.199Z,4.63
2017-09-08T17:18:24.081Z,7.17
2017-09-08T17:20:53.394Z,4.27
2017-09-08T17:23:21.967Z,4.80
2017-09-08T17:25:50.313Z,7.03
2017-09-08T17:28:19.191Z,6.10
2017-09-08T17:30:47.559Z,6.40
2017-09-08T17:33:15.908Z,5.93
2017-09-08T17:35:44.725Z,10.57
2017-09-08T17:38:13.902Z,5.80
2017-09-08T17:40:42.271Z,5.87
2017-09-08T17:43:11.104Z,11.37
2017-09-08T17:45:39.476Z,6.33
2017-09-08T17:48:08.580Z,6.83
2017-09-08T17:50:38.621Z,5.97
2017-09-08T17:53:07.497Z,5.37
2017-09-08T17:55:38.349Z,9.70
2017-09-08T17:58:07.139Z,6.10
2017-09-08T18:00:35.501Z,6.80
2017-09-08T18:03:03.929Z,5.53
2017-09-08T18:05:32.652Z,4.97
2017-09-08T18:08:01.010Z,9.17
2017-09-08T18:10:30.199Z,6.03
2017-09-08T18:12:58.819Z,5.93
2017-09-08T18:15:27.208Z,6.10
2017-09-08T18:17:57.293Z,6.63
2017-09-08T18:20:26.230Z,8.80
2017-09-08T18:22:54.583Z,6.47
2017-09-08T18:25:22.967Z,5.77
2017-09-08T18:27:51.672Z,4.70
2017-09-08T18:30:20.035Z,4.17
2017-09-08T18:32:49.814Z,5.33
2017-09-08T18:35:18.470Z,10.57
2017-09-08T18:37:47.625Z,4.33
2017-09-08T18:40:16.699Z,5.20
2017-09-08T18:42:45.486Z,3.83
2017-09-08T18:45:13.901Z,6.20
2017-09-08T18:47:43.939Z,3.60
2017-09-08T18:50:13.085Z,4.80
2017-09-08T18:52:41.436Z,4.20
2017-09-08T18:55:09.823Z,3.80
2017-09-08T18:57:38.691Z,3.90
2017-09-08T19:00:07.038Z,8.40
2017-09-08T19:02:36.185Z,4.53
2017-09-08T19:05:05.926Z,3.63
2017-09-08T19:07:35.788Z,4.40
2017-09-08T19:10:04.364Z,4.13
2017-09-08T19:12:32.978Z,4.53
2017-09-08T19:15:01.311Z,4.07
2017-09-08T19:17:29.652Z,5.80
2017-09-08T19:19:59.249Z,3.33
2017-09-08T19:22:28.251Z,4.07
2017-09-08T19:24:56.620Z,4.10
2017-09-08T19:27:25.658Z,4.00
2017-09-08T19:29:54.638Z,3.57
2017-09-08T19:32:23.115Z,5.80
2017-09-08T19:34:52.662Z,6.10
2017-09-08T19:37:21.042Z,6.63
2017-09-08T19:39:50.370Z,3.77
2017-09-08T19:42:20.605Z,6.17
2017-09-08T19:44:48.954Z,4.77
2017-09-08T19:47:17.523Z,4.93
2017-09-08T19:49:46.374Z,4.77
2017-09-08T19:52:15.418Z,4.43
2017-09-08T19:54:43.800Z,3.50
2017-09-08T19:57:12.678Z,5.10
2017-09-08T19:59:41.786Z,4.57
2017-09-08T20:02:10.142Z,4.60
2017-09-08T20:04:39.985Z,4.40
2017-09-08T20:07:08.392Z,4.80
2017-09-08T20:09:36.742Z,8.67
2017-09-08T20:12:06.237Z,5.37
2017-09-08T20:14:34.575Z,11.87
2017-09-08T20:17:02.954Z,3.60
2017-09-08T20:19:32.326Z,3.27
2017-09-08T20:22:00.676Z,17.20
2017-09-08T20:24:30.618Z,4.67
2017-09-08T20:26:59.294Z,3.43
2017-09-08T20:29:28.509Z,3.80
2017-09-08T20:31:56.954Z,3.43
2017-09-08T20:34:25.646Z,3.50
2017-09-08T20:36:54.456Z,6.87
2017-09-08T20:39:22.800Z,4.43
2017-09-08T20:41:52.513Z,7.40
2017-09-08T20:44:22.801Z,3.77
2017-09-08T20:46:51.156Z,5.50
2017-09-08T20:49:19.901Z,4.33
2017-09-08T20:51:48.283Z,4.10
2017-09-08T20:54:16.830Z,5.47
2017-09-08T20:56:46.636Z,9.47
2017-09-08T20:59:15.049Z,8.40
2017-09-08T21:01:45.257Z,6.50
2017-09-08T21:04:14.048Z,8.40
2017-09-08T21:06:42.394Z,4.20
2017-09-08T21:09:10.752Z,4.80
2017-09-08T21:11:39.435Z,5.13
2017-09-08T21:14:07.781Z,3.13
2017-09-08T21:16:36.163Z,3.10
2017-09-08T21:19:04.882Z,3.20
2017-09-08T21:21:33.541Z,5.40
2017-09-08T21:24:01.873Z,8.07
2017-09-08T21:26:30.518Z,6.87
2017-09-08T21:28:58.865Z,3.60
2017-09-08T21:31:28.018Z,4.67
2017-09-08T21:33:57.326Z,4.47
2017-09-08T21:36:26.453Z,9.43
2017-09-08T21:38:55.441Z,4.13
2017-09-08T21:41:24.191Z,4.10
2017-09-08T21:43:52.775Z,6.87
2017-09-08T21:46:21.131Z,5.63
2017-09-08T21:48:49.750Z,3.60
2017-09-08T21:51:18.095Z,6.73
2017-09-08T21:53:46.458Z,4.67
2017-09-08T21:56:16.009Z,4.27
2017-09-08T21:58:44.355Z,4.53
2017-09-08T22:01:12.736Z,6.40
2017-09-08T22:03:41.857Z,3.30
2017-09-08T22:06:10.221Z,3.40
2017-09-08T22:08:38.612Z,3.17
2017-09-08T22:11:07.246Z,6.57
2017-09-08T22:13:35.588Z,3.23
2017-09-08T22:16:04.063Z,3.80
2017-09-08T22:18:32.847Z,3.50
2017-09-08T22:21:01.218Z,3.33
2017-09-08T22:23:29.558Z,4.40
2017-09-08T22:25:58.268Z,3.33
2017-09-08T22:28:27.336Z,3.40
2017-09-08T22:30:56.010Z,3.53
2017-09-08T22:33:24.866Z,3.40
2017-09-08T22:35:53.216Z,12.83
2017-09-08T22:38:22.794Z,3.97
2017-09-08T22:40:51.466Z,3.90
2017-09-08T22:43:20.257Z,4.10
2017-09-08T22:45:48.612Z,3.30
2017-09-08T22:48:17.410Z,5.40
2017-09-08T22:50:46.538Z,3.37
2017-09-08T22:53:14.872Z,3.07
2017-09-08T22:55:43.663Z,3.77
2017-09-08T22:58:12.015Z,3.20
2017-09-08T23:00:41.110Z,8.60
2017-09-08T23:03:09.732Z,3.80
2017-09-08T23:05:38.103Z,5.83
2017-09-08T23:08:06.507Z,4.30
2017-09-08T23:10:35.391Z,12.37
2017-09-08T23:13:03.728Z,3.73
2017-09-08T23:15:32.041Z,7.20
2017-09-08T23:18:01.321Z,4.20
2017-09-08T23:20:29.763Z,6.83
2017-09-08T23:22:58.154Z,6.53
2017-09-08T23:25:26.782Z,12.00
2017-09-08T23:27:55.135Z,4.10
2017-09-08T23:30:23.483Z,3.50
2017-09-08T23:32:52.514Z,4.17
2017-09-08T23:35:20.858Z,10.43
2017-09-08T23:37:49.209Z,4.33
2017-09-08T23:40:18.175Z,6.40
2017-09-08T23:42:47.457Z,7.60
2017-09-08T23:45:15.802Z,4.47
2017-09-08T23:47:45.339Z,6.43
2017-09-08T23:50:14.446Z,6.53
2017-09-08T23:52:42.854Z,5.33
2017-09-08T23:55:11.746Z,10.43
2017-09-08T23:57:40.124Z,5.60
